createdAt,value
2019-03-20T00:00:49.232Z,88.60
2019-03-20T00:01:54.426Z,89.00
2019-03-20T00:02:59.441Z,88.80
2019-03-20T00:04:04.953Z,89.00
2019-03-20T00:05:10.225Z,88.80
2019-03-20T00:06:15.408Z,88.70
2019-03-20T00:07:21.588Z,88.70
2019-03-20T00:08:26.761Z,89.00
2019-03-20T00:09:31.850Z,89.40
2019-03-20T00:10:37.150Z,89.70
2019-03-20T00:11:42.272Z,89.70
2019-03-20T00:12:47.371Z,89.70
2019-03-20T00:13:52.460Z,89.40
2019-03-20T00:14:57.477Z,89.60
2019-03-20T00:16:02.561Z,89.60
2019-03-20T00:17:07.632Z,89.40
2019-03-20T00:18:12.724Z,89.40
2019-03-20T00:19:17.892Z,89.70
2019-03-20T00:20:22.916Z,89.90
2019-03-20T00:21:27.915Z,89.90
2019-03-20T00:22:33.112Z,89.90
2019-03-20T00:23:38.261Z,89.80
2019-03-20T00:24:43.353Z,89.80
2019-03-20T00:25:48.447Z,90.00
2019-03-20T00:26:53.452Z,90.10
2019-03-20T00:27:58.939Z,90.00
2019-03-20T00:29:04.058Z,90.10
2019-03-20T00:30:10.306Z,90.00
2019-03-20T00:31:15.478Z,90.00
2019-03-20T00:32:20.500Z,90.00
2019-03-20T00:33:26.614Z,90.00
2019-03-20T00:34:31.717Z,90.20
2019-03-20T00:35:37.104Z,90.40
2019-03-20T00:36:42.455Z,90.40
2019-03-20T00:37:47.512Z,90.40
2019-03-20T00:38:52.604Z,90.40
2019-03-20T00:39:57.739Z,90.50
2019-03-20T00:41:02.909Z,90.50
2019-03-20T00:42:07.988Z,90.50
2019-03-20T00:43:13.013Z,90.50
2019-03-20T00:44:18.093Z,90.50
2019-03-20T00:45:23.336Z,90.60
2019-03-20T00:46:28.685Z,90.80
2019-03-20T00:47:33.773Z,90.70
2019-03-20T00:48:38.873Z,90.90
2019-03-20T00:49:43.892Z,90.70
2019-03-20T00:50:49.042Z,90.50
2019-03-20T00:51:54.324Z,90.40
2019-03-20T00:52:59.461Z,90.40
2019-03-20T00:54:04.721Z,90.60
2019-03-20T00:55:09.859Z,90.70
2019-03-20T00:56:14.945Z,90.60
2019-03-20T00:57:20.043Z,90.40
2019-03-20T00:58:25.097Z,90.30
2019-03-20T00:59:30.108Z,90.30
2019-03-20T01:00:35.160Z,90.30
2019-03-20T01:01:40.168Z,90.50
2019-03-20T01:02:45.264Z,90.30
2019-03-20T01:03:50.358Z,90.20
2019-03-20T01:04:55.576Z,90.30
2019-03-20T01:06:00.576Z,90.30
2019-03-20T01:07:05.616Z,90.40
2019-03-20T01:08:10.713Z,90.60
2019-03-20T01:09:15.942Z,90.60
2019-03-20T01:10:21.045Z,90.70
2019-03-20T01:11:26.052Z,90.60
2019-03-20T01:12:31.086Z,90.70
2019-03-20T01:13:36.076Z,90.80
2019-03-20T01:14:41.178Z,90.90
2019-03-20T01:15:46.293Z,91.00
2019-03-20T01:16:51.405Z,91.20
2019-03-20T01:17:56.403Z,91.30
2019-03-20T01:19:01.417Z,91.30
2019-03-20T01:20:06.739Z,91.30
2019-03-20T01:21:11.859Z,91.40
2019-03-20T01:22:16.888Z,91.60
2019-03-20T01:23:21.937Z,91.50
2019-03-20T01:24:27.087Z,91.60
2019-03-20T01:25:32.309Z,91.70
2019-03-20T01:26:37.360Z,91.70
2019-03-20T01:27:42.424Z,91.70
2019-03-20T01:28:47.585Z,91.90
2019-03-20T01:29:52.695Z,92.00
2019-03-20T01:30:57.712Z,92.00
2019-03-20T01:32:02.765Z,91.90
2019-03-20T01:33:09.333Z,91.90
2019-03-20T01:34:14.429Z,91.80
2019-03-20T01:35:23.753Z,91.90
2019-03-20T01:36:26.231Z,92.00
2019-03-20T01:37:32.360Z,92.30
2019-03-20T01:38:37.448Z,92.30
2019-03-20T01:39:42.523Z,92.30
2019-03-20T01:40:47.523Z,92.30
2019-03-20T01:41:52.558Z,92.30
2019-03-20T01:42:57.631Z,92.30
2019-03-20T01:44:02.720Z,92.40
2019-03-20T01:45:07.830Z,92.20
2019-03-20T01:46:12.853Z,92.20
2019-03-20T01:47:17.865Z,92.20
2019-03-20T01:48:22.968Z,92.20
2019-03-20T01:49:28.169Z,92.20
2019-03-20T01:50:33.193Z,92.20
2019-03-20T01:51:38.196Z,92.10
2019-03-20T01:52:43.199Z,92.10
2019-03-20T01:53:48.208Z,92.00
2019-03-20T01:54:53.245Z,92.10
2019-03-20T01:55:58.330Z,92.10
2019-03-20T01:57:03.441Z,92.00
2019-03-20T01:58:08.446Z,91.90
2019-03-20T01:59:13.463Z,91.80
2019-03-20T02:00:18.476Z,91.90
2019-03-20T02:01:23.769Z,92.00
2019-03-20T02:02:28.853Z,92.00
2019-03-20T02:03:33.875Z,92.00
2019-03-20T02:04:38.873Z,92.00
2019-03-20T02:05:43.868Z,91.90
2019-03-20T02:06:48.925Z,91.90
2019-03-20T02:07:53.992Z,91.90
2019-03-20T02:09:00.126Z,91.90
2019-03-20T02:10:05.914Z,91.80
2019-03-20T02:11:10.948Z,91.80
2019-03-20T02:12:15.992Z,91.80
2019-03-20T02:13:21.009Z,91.80
2019-03-20T02:14:26.127Z,92.00
2019-03-20T02:15:39.021Z,91.90
2019-03-20T02:16:38.016Z,92.10
2019-03-20T02:17:43.068Z,92.00
2019-03-20T02:18:50.404Z,92.30
2019-03-20T02:19:55.584Z,92.60
2019-03-20T02:21:01.099Z,92.80
2019-03-20T02:22:06.451Z,93.00
2019-03-20T02:23:11.758Z,93.10
2019-03-20T02:24:16.859Z,93.20
2019-03-20T02:25:21.873Z,93.20
2019-03-20T02:26:26.923Z,93.30
2019-03-20T02:27:32.031Z,93.30
2019-03-20T02:28:37.055Z,93.30
2019-03-20T02:29:42.057Z,93.40
2019-03-20T02:30:47.064Z,93.30
2019-03-20T02:31:52.157Z,93.30
2019-03-20T02:32:57.197Z,93.20
2019-03-20T02:34:02.595Z,93.20
2019-03-20T02:35:07.802Z,93.10
2019-03-20T02:36:12.967Z,93.00
2019-03-20T02:37:18.149Z,93.00
2019-03-20T02:38:23.263Z,93.00
2019-03-20T02:39:28.305Z,93.10
2019-03-20T02:40:33.476Z,93.10
2019-03-20T02:41:38.520Z,93.00
2019-03-20T02:42:43.547Z,92.90
2019-03-20T02:43:48.630Z,93.00
2019-03-20T02:44:54.701Z,93.00
2019-03-20T02:45:59.788Z,93.10
2019-03-20T02:47:04.904Z,93.00
2019-03-20T02:48:09.963Z,93.00
2019-03-20T02:49:15.137Z,92.90
2019-03-20T02:50:20.398Z,92.90
2019-03-20T02:51:25.504Z,93.00
2019-03-20T02:52:30.596Z,92.90
2019-03-20T02:53:35.689Z,92.90
2019-03-20T02:54:40.744Z,92.80
2019-03-20T02:55:45.772Z,92.70
2019-03-20T02:56:50.881Z,92.70
2019-03-20T02:57:56.050Z,92.80
2019-03-20T02:59:01.157Z,92.80
2019-03-20T03:00:07.743Z,92.80
2019-03-20T03:01:12.939Z,92.80
2019-03-20T03:02:18.244Z,92.80
2019-03-20T03:03:23.337Z,92.80
2019-03-20T03:04:29.490Z,92.70
2019-03-20T03:05:34.532Z,92.70
2019-03-20T03:06:39.617Z,92.60
2019-03-20T03:07:44.615Z,92.50
2019-03-20T03:08:49.662Z,92.50
2019-03-20T03:09:54.692Z,92.60
2019-03-20T03:10:59.765Z,92.60
2019-03-20T03:12:05.037Z,92.70
2019-03-20T03:13:11.190Z,92.60
2019-03-20T03:14:16.218Z,92.50
2019-03-20T03:15:21.381Z,92.60
2019-03-20T03:16:26.399Z,92.80
2019-03-20T03:17:31.402Z,92.80
2019-03-20T03:18:36.413Z,92.90
2019-03-20T03:19:41.445Z,92.80
2019-03-20T03:20:46.578Z,92.80
2019-03-20T03:21:51.645Z,92.80
2019-03-20T03:22:56.668Z,92.90
2019-03-20T03:24:01.696Z,92.90
2019-03-20T03:25:06.907Z,93.00
2019-03-20T03:26:11.920Z,93.00
2019-03-20T03:27:16.924Z,93.00
2019-03-20T03:28:21.925Z,93.10
2019-03-20T03:29:26.971Z,93.00
2019-03-20T03:30:32.086Z,92.90
2019-03-20T03:31:37.138Z,93.00
2019-03-20T03:32:42.239Z,92.90
2019-03-20T03:33:47.286Z,92.80
2019-03-20T03:34:52.314Z,92.60
2019-03-20T03:35:58.480Z,92.60
2019-03-20T03:37:03.488Z,92.60
2019-03-20T03:38:08.856Z,92.50
2019-03-20T03:39:14.045Z,92.60
2019-03-20T03:40:19.084Z,92.60
2019-03-20T03:41:24.088Z,92.60
2019-03-20T03:42:29.213Z,92.60
2019-03-20T03:43:34.230Z,92.60
2019-03-20T03:44:39.227Z,92.70
2019-03-20T03:45:44.265Z,92.70
2019-03-20T03:46:49.275Z,92.70
2019-03-20T03:47:55.349Z,92.80
2019-03-20T03:49:00.444Z,92.70
2019-03-20T03:50:05.878Z,92.70
2019-03-20T03:51:10.901Z,92.80
2019-03-20T03:52:15.898Z,92.80
2019-03-20T03:53:20.909Z,92.80
2019-03-20T03:54:25.995Z,92.90
2019-03-20T03:55:31.114Z,92.90
2019-03-20T03:56:36.156Z,92.90
2019-03-20T03:57:41.248Z,92.90
2019-03-20T03:58:46.424Z,93.00
2019-03-20T03:59:51.539Z,93.00
2019-03-20T04:00:56.586Z,93.10
2019-03-20T04:02:01.676Z,93.00
2019-03-20T04:03:06.893Z,92.90
2019-03-20T04:04:12.277Z,92.90
2019-03-20T04:05:17.342Z,93.10
2019-03-20T04:06:34.933Z,93.20
2019-03-20T04:07:29.180Z,93.30
2019-03-20T04:08:34.453Z,93.40
2019-03-20T04:09:39.481Z,93.40
2019-03-20T04:10:44.655Z,93.50
2019-03-20T04:11:49.834Z,93.50
2019-03-20T04:12:54.875Z,93.60
2019-03-20T04:13:59.882Z,93.70
2019-03-20T04:15:05.608Z,93.70
2019-03-20T04:16:10.734Z,93.80
2019-03-20T04:17:23.570Z,93.80
2019-03-20T04:18:29.637Z,93.80
2019-03-20T04:19:34.812Z,93.60
2019-03-20T04:20:39.792Z,93.60
2019-03-20T04:21:44.846Z,93.60
2019-03-20T04:22:49.867Z,93.60
2019-03-20T04:23:54.969Z,93.60
2019-03-20T04:25:00.042Z,93.50
2019-03-20T04:26:05.345Z,93.50
2019-03-20T04:27:10.401Z,93.40
2019-03-20T04:28:15.469Z,93.40
2019-03-20T04:29:20.529Z,93.30
2019-03-20T04:30:25.618Z,93.40
2019-03-20T04:31:30.652Z,93.20
2019-03-20T04:32:35.697Z,93.40
2019-03-20T04:33:40.726Z,93.20
2019-03-20T04:34:45.729Z,93.20
2019-03-20T04:35:50.750Z,93.20
2019-03-20T04:36:55.770Z,93.20
2019-03-20T04:38:00.872Z,93.20
2019-03-20T04:39:07.748Z,93.30
2019-03-20T04:40:12.777Z,93.40
2019-03-20T04:41:17.880Z,93.40
2019-03-20T04:42:24.474Z,93.50
2019-03-20T04:43:29.509Z,93.60
2019-03-20T04:44:34.861Z,93.50
2019-03-20T04:45:39.875Z,93.50
2019-03-20T04:46:45.072Z,93.50
2019-03-20T04:47:51.212Z,93.50
2019-03-20T04:48:56.384Z,93.50
2019-03-20T04:50:01.579Z,93.60
2019-03-20T04:51:06.765Z,93.40
2019-03-20T04:52:11.861Z,93.60
2019-03-20T04:53:17.001Z,93.70
2019-03-20T04:54:22.122Z,93.80
2019-03-20T04:55:27.248Z,93.80
2019-03-20T04:56:32.276Z,93.80
2019-03-20T04:57:37.279Z,93.80
2019-03-20T04:58:42.364Z,93.80
2019-03-20T04:59:47.460Z,93.80
2019-03-20T05:00:52.554Z,93.80
2019-03-20T05:01:57.572Z,93.80
2019-03-20T05:03:02.717Z,93.80
2019-03-20T05:04:07.740Z,93.80
2019-03-20T05:05:12.804Z,93.60
2019-03-20T05:06:17.891Z,93.60
2019-03-20T05:07:23.054Z,93.70
2019-03-20T05:08:28.084Z,93.70
2019-03-20T05:09:33.105Z,93.60
2019-03-20T05:10:38.258Z,93.40
2019-03-20T05:11:43.674Z,93.40
2019-03-20T05:12:48.909Z,93.10
2019-03-20T05:13:53.937Z,92.90
2019-03-20T05:14:59.016Z,92.80
2019-03-20T05:16:04.068Z,92.90
2019-03-20T05:17:09.129Z,93.00
2019-03-20T05:18:14.242Z,93.20
2019-03-20T05:19:19.360Z,93.30
2019-03-20T05:20:24.401Z,93.40
2019-03-20T05:21:29.568Z,93.60
2019-03-20T05:22:34.576Z,93.70
2019-03-20T05:23:40.211Z,93.80
2019-03-20T05:24:45.419Z,93.90
2019-03-20T05:25:50.464Z,94.10
2019-03-20T05:26:55.491Z,94.20
2019-03-20T05:28:00.524Z,94.40
2019-03-20T05:29:05.563Z,94.50
2019-03-20T05:30:12.465Z,94.70
2019-03-20T05:31:17.484Z,94.60
2019-03-20T05:32:22.583Z,94.80
2019-03-20T05:33:27.736Z,94.90
2019-03-20T05:34:32.833Z,95.20
2019-03-20T05:35:37.871Z,95.30
2019-03-20T05:36:42.997Z,95.40
2019-03-20T05:37:48.088Z,95.40
2019-03-20T05:38:53.229Z,95.30
2019-03-20T05:39:58.271Z,95.20
2019-03-20T05:41:03.410Z,94.80
2019-03-20T05:42:08.509Z,94.70
2019-03-20T05:43:13.700Z,94.70
2019-03-20T05:44:18.937Z,94.80
2019-03-20T05:45:24.043Z,95.00
2019-03-20T05:46:29.097Z,94.90
2019-03-20T05:47:34.232Z,95.00
2019-03-20T05:48:39.253Z,95.00
2019-03-20T05:49:44.284Z,94.90
2019-03-20T05:50:49.324Z,93.50
2019-03-20T05:51:54.447Z,92.80
2019-03-20T05:52:59.579Z,92.50
2019-03-20T05:54:04.620Z,92.00
2019-03-20T05:55:09.719Z,91.70
2019-03-20T05:56:14.961Z,91.00
2019-03-20T05:57:20.433Z,89.90
2019-03-20T05:58:25.486Z,87.60
2019-03-20T05:59:30.668Z,85.30
2019-03-20T06:00:36.444Z,83.70
2019-03-20T06:01:41.468Z,81.70
2019-03-20T06:02:46.576Z,79.90
2019-03-20T06:03:51.616Z,78.50
2019-03-20T06:04:56.749Z,77.10
2019-03-20T06:06:01.804Z,75.80
2019-03-20T06:07:06.863Z,75.10
2019-03-20T06:08:11.902Z,74.30
2019-03-20T06:09:17.183Z,72.90
2019-03-20T06:10:22.224Z,70.70
2019-03-20T06:11:27.288Z,69.00
2019-03-20T06:12:34.309Z,67.20
2019-03-20T06:13:40.469Z,65.80
2019-03-20T06:14:45.486Z,64.90
2019-03-20T06:15:50.516Z,63.20
2019-03-20T06:16:55.687Z,62.30
2019-03-20T06:18:00.832Z,61.10
2019-03-20T06:19:06.162Z,59.90
2019-03-20T06:20:11.811Z,57.90
2019-03-20T06:21:19.207Z,67.40
2019-03-20T06:22:24.286Z,64.80
2019-03-20T06:23:32.449Z,50.20
2019-03-20T06:24:38.704Z,49.90
2019-03-20T06:25:47.952Z,48.60
2019-03-20T06:26:53.140Z,48.90
2019-03-20T06:27:58.188Z,49.70
2019-03-20T06:29:03.313Z,49.40
2019-03-20T06:30:10.849Z,49.00
2019-03-20T06:31:18.782Z,50.10
2019-03-20T06:32:23.758Z,50.00
2019-03-20T06:33:28.872Z,47.90
2019-03-20T06:34:34.029Z,46.70
2019-03-20T06:35:40.101Z,45.70
2019-03-20T06:36:45.393Z,44.10
2019-03-20T06:37:50.519Z,42.90
2019-03-20T06:38:55.655Z,42.40
2019-03-20T06:40:00.711Z,40.70
2019-03-20T06:41:05.752Z,39.60
2019-03-20T06:42:10.775Z,38.50
2019-03-20T06:43:15.896Z,37.40
2019-03-20T06:44:20.988Z,36.40
2019-03-20T06:45:26.207Z,35.50
2019-03-20T06:46:31.329Z,34.10
2019-03-20T06:47:36.483Z,33.00
2019-03-20T06:48:41.500Z,31.80
2019-03-20T06:49:46.638Z,30.70
2019-03-20T06:50:51.998Z,30.20
2019-03-20T06:51:57.322Z,29.80
2019-03-20T06:53:02.537Z,29.30
2019-03-20T06:54:07.545Z,28.70
2019-03-20T06:55:12.671Z,28.40
2019-03-20T06:56:17.767Z,27.70
2019-03-20T06:57:23.149Z,27.60
2019-03-20T06:58:28.232Z,27.10
2019-03-20T06:59:55.828Z,27.10
2019-03-20T07:01:14.931Z,27.10
2019-03-20T07:02:21.697Z,26.30
2019-03-20T07:03:42.606Z,25.70
2019-03-20T07:05:35.151Z,24.30
2019-03-20T07:06:44.854Z,25.80
2019-03-20T07:07:49.751Z,25.10
2019-03-20T07:09:08.161Z,24.60
2019-03-20T07:10:41.010Z,24.70
2019-03-20T07:11:46.133Z,23.70
2019-03-20T07:12:51.253Z,24.50
2019-03-20T07:13:56.366Z,24.70
2019-03-20T07:15:01.382Z,24.20
2019-03-20T07:16:07.558Z,24.40
2019-03-20T07:17:12.585Z,24.40
2019-03-20T07:18:17.590Z,24.10
2019-03-20T07:19:22.686Z,23.80
2019-03-20T07:20:27.981Z,23.60
2019-03-20T07:21:33.248Z,23.70
2019-03-20T07:22:38.268Z,23.70
2019-03-20T07:23:43.470Z,23.60
2019-03-20T07:24:48.564Z,23.50
2019-03-20T07:25:53.630Z,23.20
2019-03-20T07:26:58.696Z,22.70
2019-03-20T07:28:04.536Z,22.20
2019-03-20T07:29:09.593Z,22.10
2019-03-20T07:30:14.676Z,22.10
2019-03-20T07:31:19.831Z,22.00
2019-03-20T07:32:24.958Z,21.60
2019-03-20T07:33:30.078Z,21.70
2019-03-20T07:34:35.201Z,21.20
2019-03-20T07:35:40.208Z,20.70
2019-03-20T07:36:45.192Z,20.70
2019-03-20T07:37:55.960Z,20.80
2019-03-20T07:38:57.069Z,20.30
2019-03-20T07:40:02.123Z,20.40
2019-03-20T07:41:07.437Z,20.40
2019-03-20T07:42:12.473Z,20.00
2019-03-20T07:43:17.504Z,19.70
2019-03-20T07:44:22.585Z,19.10
2019-03-20T07:45:27.730Z,20.00
2019-03-20T07:46:32.869Z,20.70
2019-03-20T07:47:37.910Z,20.70
2019-03-20T07:48:43.109Z,20.60
2019-03-20T07:49:48.245Z,21.30
2019-03-20T07:50:53.358Z,21.50
2019-03-20T07:51:58.395Z,21.40
2019-03-20T07:53:03.561Z,21.00
2019-03-20T07:54:08.755Z,21.00
2019-03-20T07:55:13.846Z,21.10
2019-03-20T07:56:19.975Z,20.70
2019-03-20T07:57:25.098Z,20.00
2019-03-20T07:58:30.105Z,20.20
2019-03-20T07:59:35.163Z,20.40
2019-03-20T08:00:40.201Z,19.40
2019-03-20T08:01:45.272Z,20.50
2019-03-20T08:02:50.389Z,20.80
2019-03-20T08:03:55.405Z,20.80
2019-03-20T08:05:00.531Z,20.40
2019-03-20T08:06:05.776Z,20.30
2019-03-20T08:07:10.792Z,20.10
2019-03-20T08:08:15.899Z,20.00
2019-03-20T08:09:21.157Z,20.20
2019-03-20T08:10:26.235Z,19.60
2019-03-20T08:11:31.333Z,18.70
2019-03-20T08:12:36.517Z,19.20
2019-03-20T08:13:41.553Z,20.90
2019-03-20T08:14:46.669Z,21.20
2019-03-20T08:15:51.691Z,20.90
2019-03-20T08:16:56.709Z,20.80
2019-03-20T08:18:01.754Z,20.60
2019-03-20T08:19:06.914Z,20.20
2019-03-20T08:20:13.020Z,20.30
2019-03-20T08:21:18.133Z,20.90
2019-03-20T08:22:23.269Z,20.40
2019-03-20T08:23:28.313Z,20.30
2019-03-20T08:24:33.704Z,19.10
2019-03-20T08:25:38.858Z,19.40
2019-03-20T08:26:43.884Z,19.60
2019-03-20T08:27:48.907Z,19.60
2019-03-20T08:28:53.922Z,19.60
2019-03-20T08:29:59.260Z,19.50
2019-03-20T08:31:04.569Z,18.90
2019-03-20T08:32:09.580Z,18.10
2019-03-20T08:33:14.609Z,18.60
2019-03-20T08:34:19.627Z,19.20
2019-03-20T08:35:24.851Z,20.10
2019-03-20T08:36:29.968Z,20.20
2019-03-20T08:37:36.058Z,19.80
2019-03-20T08:38:41.137Z,19.70
2019-03-20T08:39:46.404Z,19.60
2019-03-20T08:40:51.521Z,19.70
2019-03-20T08:41:56.540Z,19.00
2019-03-20T08:43:01.580Z,19.80
2019-03-20T08:44:06.915Z,20.30
2019-03-20T08:45:12.516Z,19.20
2019-03-20T08:46:17.609Z,19.80
2019-03-20T08:47:22.690Z,19.40
2019-03-20T08:48:27.789Z,19.30
2019-03-20T08:49:32.988Z,19.00
2019-03-20T08:50:38.018Z,18.80
2019-03-20T08:51:43.237Z,18.40
2019-03-20T08:52:48.236Z,18.30
2019-03-20T08:53:53.308Z,18.70
2019-03-20T08:54:58.405Z,18.90
2019-03-20T08:56:03.582Z,18.10
2019-03-20T08:57:08.619Z,18.60
2019-03-20T08:58:13.702Z,18.70
2019-03-20T08:59:18.799Z,17.40
2019-03-20T09:00:24.664Z,18.10
2019-03-20T09:01:29.776Z,18.70
2019-03-20T09:02:35.956Z,20.10
2019-03-20T09:03:41.078Z,19.30
2019-03-20T09:04:46.096Z,19.90
2019-03-20T09:05:51.150Z,19.70
2019-03-20T09:06:56.268Z,18.70
2019-03-20T09:08:01.347Z,19.20
2019-03-20T09:09:08.779Z,19.40
2019-03-20T09:10:16.000Z,19.30
2019-03-20T09:11:21.111Z,19.20
2019-03-20T09:12:26.237Z,19.50
2019-03-20T09:13:31.267Z,18.30
2019-03-20T09:14:36.419Z,18.50
2019-03-20T09:15:41.514Z,18.50
2019-03-20T09:16:46.596Z,18.50
2019-03-20T09:17:51.643Z,18.20
2019-03-20T09:18:56.755Z,18.10
2019-03-20T09:20:01.772Z,17.30
2019-03-20T09:21:06.865Z,17.90
2019-03-20T09:22:11.906Z,18.40
2019-03-20T09:23:17.025Z,19.00
2019-03-20T09:24:22.130Z,18.80
2019-03-20T09:25:27.262Z,19.10
2019-03-20T09:26:32.372Z,17.90
2019-03-20T09:27:37.416Z,18.50
2019-03-20T09:28:42.577Z,18.70
2019-03-20T09:29:47.689Z,19.00
2019-03-20T09:30:52.784Z,18.70
2019-03-20T09:31:57.804Z,19.30
2019-03-20T09:33:02.831Z,19.10
2019-03-20T09:34:07.853Z,18.80
2019-03-20T09:35:12.954Z,18.70
2019-03-20T09:36:18.013Z,18.50
2019-03-20T09:37:23.101Z,17.60
2019-03-20T09:38:28.188Z,17.90
2019-03-20T09:39:33.197Z,17.70
2019-03-20T09:40:38.218Z,18.30
2019-03-20T09:41:43.333Z,17.50
2019-03-20T09:42:48.487Z,18.10
2019-03-20T09:43:53.525Z,18.30
2019-03-20T09:44:58.625Z,18.10
2019-03-20T09:46:03.701Z,18.00
2019-03-20T09:47:11.355Z,17.80
2019-03-20T09:48:16.386Z,18.30
2019-03-20T09:49:21.427Z,18.10
2019-03-20T09:50:26.530Z,17.80
2019-03-20T09:51:31.660Z,17.70
2019-03-20T09:52:36.747Z,17.90
2019-03-20T09:53:41.792Z,18.00
2019-03-20T09:54:46.899Z,17.90
2019-03-20T09:55:51.991Z,18.50
2019-03-20T09:56:57.008Z,17.50
2019-03-20T09:58:11.227Z,17.00
2019-03-20T09:59:08.810Z,17.00
2019-03-20T10:00:19.206Z,17.00
2019-03-20T10:01:24.267Z,16.90
2019-03-20T10:02:30.581Z,17.00
2019-03-20T10:03:35.789Z,17.00
2019-03-20T10:04:40.820Z,17.80
2019-03-20T10:05:45.901Z,17.50
2019-03-20T10:06:51.013Z,17.50
2019-03-20T10:07:56.025Z,17.50
2019-03-20T10:09:02.051Z,17.00
2019-03-20T10:10:08.516Z,16.80
2019-03-20T10:11:13.743Z,16.60
2019-03-20T10:12:18.756Z,16.40
2019-03-20T10:13:23.777Z,15.50
2019-03-20T10:14:28.833Z,16.30
2019-03-20T10:15:34.880Z,16.00
2019-03-20T10:16:39.984Z,16.00
2019-03-20T10:17:45.052Z,17.30
2019-03-20T10:18:50.155Z,16.90
2019-03-20T10:19:56.520Z,17.10
2019-03-20T10:21:01.552Z,17.30
2019-03-20T10:22:06.840Z,18.20
2019-03-20T10:23:11.996Z,18.30
2019-03-20T10:24:18.072Z,18.90
2019-03-20T10:25:23.173Z,18.20
2019-03-20T10:26:28.380Z,18.40
2019-03-20T10:27:33.664Z,18.60
2019-03-20T10:28:38.694Z,19.00
2019-03-20T10:29:43.707Z,18.40
2019-03-20T10:30:48.748Z,18.50
2019-03-20T10:31:53.783Z,18.60
2019-03-20T10:32:58.892Z,18.10
2019-03-20T10:34:04.035Z,17.50
2019-03-20T10:35:09.957Z,18.20
2019-03-20T10:36:14.970Z,18.30
2019-03-20T10:37:19.991Z,18.40
2019-03-20T10:38:25.018Z,19.50
2019-03-20T10:39:30.136Z,19.20
2019-03-20T10:40:35.170Z,18.90
2019-03-20T10:41:40.194Z,18.90
2019-03-20T10:42:45.268Z,18.90
2019-03-20T10:43:52.264Z,19.30
2019-03-20T10:44:57.148Z,19.50
2019-03-20T10:46:02.576Z,19.30
2019-03-20T10:47:07.613Z,20.10
2019-03-20T10:48:12.697Z,20.70
2019-03-20T10:49:17.800Z,20.80
2019-03-20T10:50:22.984Z,20.80
2019-03-20T10:51:28.051Z,21.40
2019-03-20T10:52:33.121Z,21.50
2019-03-20T10:53:38.230Z,21.40
2019-03-20T10:54:43.440Z,21.90
2019-03-20T10:55:48.558Z,21.80
2019-03-20T10:56:53.705Z,21.40
2019-03-20T10:57:59.138Z,22.20
2019-03-20T10:59:04.252Z,22.00
2019-03-20T11:00:17.560Z,21.80
2019-03-20T11:01:22.727Z,21.70
2019-03-20T11:02:27.776Z,21.40
2019-03-20T11:03:32.918Z,22.20
2019-03-20T11:04:38.000Z,22.80
2019-03-20T11:05:43.053Z,22.90
2019-03-20T11:06:48.137Z,22.90
2019-03-20T11:07:53.340Z,22.90
2019-03-20T11:08:58.690Z,23.30
2019-03-20T11:10:04.461Z,23.60
2019-03-20T11:11:09.734Z,24.60
2019-03-20T11:12:14.846Z,25.00
2019-03-20T11:13:20.042Z,25.40
2019-03-20T11:14:25.151Z,25.50
2019-03-20T11:15:30.289Z,25.70
2019-03-20T11:16:35.414Z,26.50
2019-03-20T11:17:40.509Z,27.10
2019-03-20T11:18:48.296Z,27.40
2019-03-20T11:19:52.361Z,28.60
2019-03-20T11:20:57.548Z,28.40
2019-03-20T11:22:02.828Z,28.60
2019-03-20T11:23:08.258Z,28.90
2019-03-20T11:24:15.278Z,28.20
2019-03-20T11:25:20.763Z,28.20
2019-03-20T11:26:26.092Z,28.70
2019-03-20T11:27:33.371Z,29.10
2019-03-20T11:28:37.991Z,28.80
2019-03-20T11:29:43.132Z,29.10
2019-03-20T11:30:48.228Z,29.80
2019-03-20T11:31:53.266Z,29.40
2019-03-20T11:32:58.386Z,30.00
2019-03-20T11:34:03.672Z,30.00
2019-03-20T11:35:09.054Z,30.10
2019-03-20T11:36:14.267Z,30.20
2019-03-20T11:37:19.352Z,30.70
2019-03-20T11:38:24.457Z,31.00
2019-03-20T11:39:30.161Z,31.20
2019-03-20T11:40:35.487Z,31.50
2019-03-20T11:41:40.601Z,31.50
2019-03-20T11:42:45.700Z,31.80
2019-03-20T11:43:50.809Z,31.80
2019-03-20T11:44:56.157Z,32.60
2019-03-20T11:46:01.995Z,32.80
2019-03-20T11:47:07.053Z,32.10
2019-03-20T11:48:12.161Z,31.80
2019-03-20T11:49:17.280Z,31.80
2019-03-20T11:50:24.703Z,31.70
2019-03-20T11:51:29.812Z,31.90
2019-03-20T11:52:35.028Z,32.20
2019-03-20T11:53:40.037Z,32.10
2019-03-20T11:54:45.228Z,33.00
2019-03-20T11:55:50.597Z,32.00
2019-03-20T11:56:55.772Z,31.80
2019-03-20T11:58:01.289Z,31.90
2019-03-20T11:59:06.476Z,32.40
2019-03-20T12:00:13.731Z,32.40
2019-03-20T12:01:18.859Z,32.30
2019-03-20T12:02:28.447Z,33.10
2019-03-20T12:03:30.856Z,32.90
2019-03-20T12:04:35.942Z,32.80
2019-03-20T12:05:41.018Z,33.50
2019-03-20T12:06:47.772Z,33.00
2019-03-20T12:07:52.811Z,32.90
2019-03-20T12:08:58.019Z,33.10
2019-03-20T12:10:03.100Z,32.50
2019-03-20T12:11:08.141Z,32.40
2019-03-20T12:12:13.223Z,32.60
2019-03-20T12:13:18.353Z,32.90
2019-03-20T12:14:23.436Z,33.40
2019-03-20T12:15:28.503Z,33.30
2019-03-20T12:16:33.645Z,33.70
2019-03-20T12:17:38.787Z,33.80
2019-03-20T12:18:43.991Z,33.60
2019-03-20T12:19:49.029Z,33.50
2019-03-20T12:20:54.181Z,33.20
2019-03-20T12:21:59.304Z,33.10
2019-03-20T12:23:04.420Z,32.70
2019-03-20T12:24:09.488Z,32.90
2019-03-20T12:25:19.371Z,33.20
2019-03-20T12:26:24.485Z,33.10
2019-03-20T12:27:29.594Z,33.30
2019-03-20T12:28:34.828Z,33.90
2019-03-20T12:29:40.216Z,34.00
2019-03-20T12:30:45.341Z,34.60
2019-03-20T12:31:50.360Z,34.00
2019-03-20T12:32:55.415Z,33.50
2019-03-20T12:34:02.359Z,32.90
2019-03-20T12:35:10.253Z,33.30
2019-03-20T12:36:15.280Z,33.10
2019-03-20T12:37:20.413Z,33.20
2019-03-20T12:38:25.509Z,32.70
2019-03-20T12:39:30.534Z,32.90
2019-03-20T12:40:35.614Z,34.10
2019-03-20T12:41:40.763Z,33.90
2019-03-20T12:42:45.848Z,33.20
2019-03-20T12:43:51.004Z,32.70
2019-03-20T12:44:56.153Z,33.30
2019-03-20T12:46:01.293Z,34.00
2019-03-20T12:47:09.494Z,34.00
2019-03-20T12:48:14.581Z,33.60
2019-03-20T12:49:21.054Z,32.90
2019-03-20T12:50:27.786Z,32.80
2019-03-20T12:51:32.799Z,33.20
2019-03-20T12:52:39.015Z,32.80
2019-03-20T12:53:44.152Z,32.70
2019-03-20T12:54:49.174Z,33.00
2019-03-20T12:55:54.227Z,33.40
2019-03-20T12:56:59.241Z,33.80
2019-03-20T12:58:04.468Z,33.40
2019-03-20T12:59:09.605Z,33.20
2019-03-20T13:00:16.808Z,33.50
2019-03-20T13:01:21.963Z,33.30
2019-03-20T13:02:31.333Z,34.10
2019-03-20T13:03:36.454Z,34.30
2019-03-20T13:04:41.621Z,34.20
2019-03-20T13:05:46.663Z,33.80
2019-03-20T13:06:51.859Z,33.50
2019-03-20T13:08:05.301Z,33.00
2019-03-20T13:09:08.045Z,33.30
2019-03-20T13:10:15.217Z,33.90
2019-03-20T13:11:21.236Z,33.50
2019-03-20T13:12:26.257Z,33.30
2019-03-20T13:13:31.391Z,32.90
2019-03-20T13:14:39.622Z,33.00
2019-03-20T13:15:44.718Z,33.00
2019-03-20T13:16:49.796Z,32.80
2019-03-20T13:17:55.334Z,32.90
2019-03-20T13:19:00.431Z,33.80
2019-03-20T13:20:09.012Z,34.00
2019-03-20T13:21:14.206Z,34.00
2019-03-20T13:22:19.231Z,33.50
2019-03-20T13:23:26.878Z,33.40
2019-03-20T13:24:32.893Z,33.80
2019-03-20T13:25:37.970Z,33.50
2019-03-20T13:26:43.068Z,33.70
2019-03-20T13:27:48.102Z,33.50
2019-03-20T13:28:53.164Z,33.30
2019-03-20T13:30:01.151Z,33.40
2019-03-20T13:31:14.239Z,34.00
2019-03-20T13:32:20.040Z,34.50
2019-03-20T13:33:26.212Z,34.40
2019-03-20T13:34:31.548Z,34.10
2019-03-20T13:35:36.560Z,33.60
2019-03-20T13:36:41.644Z,33.60
2019-03-20T13:37:46.736Z,34.20
2019-03-20T13:38:51.918Z,33.00
2019-03-20T13:39:57.009Z,32.70
2019-03-20T13:41:02.108Z,32.60
2019-03-20T13:42:07.224Z,32.40
2019-03-20T13:43:12.278Z,32.50
2019-03-20T13:44:20.784Z,32.90
2019-03-20T13:45:25.883Z,33.30
2019-03-20T13:46:30.903Z,33.30
2019-03-20T13:47:35.989Z,33.40
2019-03-20T13:48:41.141Z,33.00
2019-03-20T13:49:46.361Z,33.40
2019-03-20T13:50:51.828Z,33.60
2019-03-20T13:51:56.920Z,33.50
2019-03-20T13:53:02.038Z,34.00
2019-03-20T13:54:07.315Z,33.80
2019-03-20T13:55:12.382Z,33.60
2019-03-20T13:56:17.490Z,33.80
2019-03-20T13:57:23.594Z,34.80
2019-03-20T13:58:28.689Z,34.70
2019-03-20T13:59:33.780Z,34.10
2019-03-20T14:00:38.854Z,34.20
2019-03-20T14:01:44.017Z,33.90
2019-03-20T14:02:49.143Z,33.80
2019-03-20T14:03:54.263Z,34.00